sensor_id;sensor_type;location;lat;lon;timestamp;P1;durP1;ratioP1;P2;durP2;ratioP2
55031;SDS011;40928;51.076;7.950;2023-08-17T00:00:22;10.55;;;7.63;;
55031;SDS011;40928;51.076;7.950;2023-08-17T00:02:47;8.02;;;6.82;;
55031;SDS011;40928;51.076;7.950;2023-08-17T00:05:13;7.90;;;6.78;;
55031;SDS011;40928;51.076;7.950;2023-08-17T00:07:38;9.50;;;6.53;;
55031;SDS011;40928;51.076;7.950;2023-08-17T00:10:04;9.45;;;7.30;;
55031;SDS011;40928;51.076;7.950;2023-08-17T00:12:29;12.90;;;6.95;;
55031;SDS011;40928;51.076;7.950;2023-08-17T00:14:55;11.48;;;8.32;;
55031;SDS011;40928;51.076;7.950;2023-08-17T00:17:21;12.45;;;7.05;;
55031;SDS011;40928;51.076;7.950;2023-08-17T00:19:47;8.63;;;6.68;;
55031;SDS011;40928;51.076;7.950;2023-08-17T00:22:13;8.15;;;6.10;;
55031;SDS011;40928;51.076;7.950;2023-08-17T00:24:38;10.00;;;8.20;;
55031;SDS011;40928;51.076;7.950;2023-08-17T00:27:05;9.90;;;8.15;;
55031;SDS011;40928;51.076;7.950;2023-08-17T00:29:31;14.60;;;7.28;;
55031;SDS011;40928;51.076;7.950;2023-08-17T00:31:57;8.70;;;6.28;;
55031;SDS011;40928;51.076;7.950;2023-08-17T00:34:22;12.30;;;8.57;;
55031;SDS011;40928;51.076;7.950;2023-08-17T00:36:48;9.40;;;7.00;;
55031;SDS011;40928;51.076;7.950;2023-08-17T00:39:13;11.15;;;7.80;;
55031;SDS011;40928;51.076;7.950;2023-08-17T00:41:40;9.20;;;6.38;;
55031;SDS011;40928;51.076;7.950;2023-08-17T00:44:06;6.72;;;5.82;;
55031;SDS011;40928;51.076;7.950;2023-08-17T00:46:31;11.30;;;8.93;;
55031;SDS011;40928;51.076;7.950;2023-08-17T00:48:57;11.18;;;7.93;;
55031;SDS011;40928;51.076;7.950;2023-08-17T00:51:23;12.80;;;5.97;;
55031;SDS011;40928;51.076;7.950;2023-08-17T00:53:50;9.73;;;7.13;;
55031;SDS011;40928;51.076;7.950;2023-08-17T00:56:17;13.50;;;8.93;;
55031;SDS011;40928;51.076;7.950;2023-08-17T00:58:43;13.77;;;9.10;;
55031;SDS011;40928;51.076;7.950;2023-08-17T01:01:09;8.85;;;6.43;;
55031;SDS011;40928;51.076;7.950;2023-08-17T01:03:36;10.48;;;7.00;;
55031;SDS011;40928;51.076;7.950;2023-08-17T01:06:06;8.07;;;6.20;;
55031;SDS011;40928;51.076;7.950;2023-08-17T01:08:31;9.45;;;5.88;;
55031;SDS011;40928;51.076;7.950;2023-08-17T01:16:22;8.80;;;6.72;;
55031;SDS011;40928;51.076;7.950;2023-08-17T01:18:52;8.93;;;5.95;;
55031;SDS011;40928;51.076;7.950;2023-08-17T01:21:20;8.00;;;5.20;;
55031;SDS011;40928;51.076;7.950;2023-08-17T01:23:49;13.80;;;5.85;;
55031;SDS011;40928;51.076;7.950;2023-08-17T01:26:15;8.45;;;6.63;;
55031;SDS011;40928;51.076;7.950;2023-08-17T01:28:45;7.00;;;5.63;;
55031;SDS011;40928;51.076;7.950;2023-08-17T01:31:19;11.60;;;8.57;;
55031;SDS011;40928;51.076;7.950;2023-08-17T01:33:52;9.02;;;6.97;;
55031;SDS011;40928;51.076;7.950;2023-08-17T01:38:52;9.25;;;6.82;;
55031;SDS011;40928;51.076;7.950;2023-08-17T01:41:22;9.90;;;7.68;;
55031;SDS011;40928;51.076;7.950;2023-08-17T01:43:50;13.32;;;9.70;;
55031;SDS011;40928;51.076;7.950;2023-08-17T01:46:16;11.63;;;9.00;;
55031;SDS011;40928;51.076;7.950;2023-08-17T01:48:43;10.73;;;9.25;;
55031;SDS011;40928;51.076;7.950;2023-08-17T01:51:20;14.63;;;9.15;;
55031;SDS011;40928;51.076;7.950;2023-08-17T01:53:45;12.07;;;9.57;;
55031;SDS011;40928;51.076;7.950;2023-08-17T01:56:11;16.05;;;9.15;;
55031;SDS011;40928;51.076;7.950;2023-08-17T01:58:37;11.68;;;9.00;;
55031;SDS011;40928;51.076;7.950;2023-08-17T02:01:04;15.15;;;9.00;;
55031;SDS011;40928;51.076;7.950;2023-08-17T02:03:29;17.55;;;9.20;;
55031;SDS011;40928;51.076;7.950;2023-08-17T02:05:55;14.07;;;7.30;;
55031;SDS011;40928;51.076;7.950;2023-08-17T02:08:21;11.45;;;7.10;;
55031;SDS011;40928;51.076;7.950;2023-08-17T02:10:46;13.00;;;8.98;;
55031;SDS011;40928;51.076;7.950;2023-08-17T02:13:14;11.20;;;8.25;;
55031;SDS011;40928;51.076;7.950;2023-08-17T02:15:39;15.07;;;9.43;;
55031;SDS011;40928;51.076;7.950;2023-08-17T02:18:05;10.65;;;6.45;;
55031;SDS011;40928;51.076;7.950;2023-08-17T02:20:31;10.48;;;6.82;;
55031;SDS011;40928;51.076;7.950;2023-08-17T02:22:57;7.75;;;5.63;;
55031;SDS011;40928;51.076;7.950;2023-08-17T02:25:22;10.00;;;7.47;;
55031;SDS011;40928;51.076;7.950;2023-08-17T02:27:50;11.57;;;7.57;;
55031;SDS011;40928;51.076;7.950;2023-08-17T02:30:16;11.77;;;8.32;;
55031;SDS011;40928;51.076;7.950;2023-08-17T02:32:41;12.18;;;8.77;;
55031;SDS011;40928;51.076;7.950;2023-08-17T02:35:07;13.23;;;9.65;;
55031;SDS011;40928;51.076;7.950;2023-08-17T02:37:33;13.45;;;10.25;;
55031;SDS011;40928;51.076;7.950;2023-08-17T02:39:59;16.15;;;8.07;;
55031;SDS011;40928;51.076;7.950;2023-08-17T02:42:26;13.70;;;9.90;;
55031;SDS011;40928;51.076;7.950;2023-08-17T02:44:53;10.88;;;8.27;;
55031;SDS011;40928;51.076;7.950;2023-08-17T02:47:18;14.73;;;9.77;;
55031;SDS011;40928;51.076;7.950;2023-08-17T02:49:45;15.60;;;8.73;;
55031;SDS011;40928;51.076;7.950;2023-08-17T02:52:13;13.30;;;9.55;;
55031;SDS011;40928;51.076;7.950;2023-08-17T02:54:38;16.23;;;10.63;;
55031;SDS011;40928;51.076;7.950;2023-08-17T02:57:04;12.23;;;8.00;;
55031;SDS011;40928;51.076;7.950;2023-08-17T02:59:30;11.48;;;9.10;;
55031;SDS011;40928;51.076;7.950;2023-08-17T03:01:55;13.40;;;6.93;;
55031;SDS011;40928;51.076;7.950;2023-08-17T03:04:21;10.75;;;7.88;;
55031;SDS011;40928;51.076;7.950;2023-08-17T03:06:47;10.43;;;7.47;;
55031;SDS011;40928;51.076;7.950;2023-08-17T03:09:12;10.80;;;8.50;;
55031;SDS011;40928;51.076;7.950;2023-08-17T03:11:37;11.73;;;8.40;;
55031;SDS011;40928;51.076;7.950;2023-08-17T03:14:03;11.30;;;7.70;;
55031;SDS011;40928;51.076;7.950;2023-08-17T03:16:29;12.20;;;9.50;;
55031;SDS011;40928;51.076;7.950;2023-08-17T03:18:55;12.40;;;8.80;;
55031;SDS011;40928;51.076;7.950;2023-08-17T03:21:22;11.32;;;8.30;;
55031;SDS011;40928;51.076;7.950;2023-08-17T03:23:48;11.30;;;8.70;;
55031;SDS011;40928;51.076;7.950;2023-08-17T03:26:14;8.43;;;6.55;;
55031;SDS011;40928;51.076;7.950;2023-08-17T03:28:40;13.90;;;10.85;;
55031;SDS011;40928;51.076;7.950;2023-08-17T03:31:06;12.35;;;9.10;;
55031;SDS011;40928;51.076;7.950;2023-08-17T03:33:34;8.77;;;6.07;;
55031;SDS011;40928;51.076;7.950;2023-08-17T03:36:01;15.30;;;9.55;;
55031;SDS011;40928;51.076;7.950;2023-08-17T03:38:28;15.95;;;10.13;;
55031;SDS011;40928;51.076;7.950;2023-08-17T03:40:54;16.00;;;10.23;;
55031;SDS011;40928;51.076;7.950;2023-08-17T03:43:22;19.15;;;9.85;;
55031;SDS011;40928;51.076;7.950;2023-08-17T03:45:47;16.23;;;10.43;;
55031;SDS011;40928;51.076;7.950;2023-08-17T03:48:13;15.93;;;10.45;;
55031;SDS011;40928;51.076;7.950;2023-08-17T03:50:39;19.70;;;11.63;;
55031;SDS011;40928;51.076;7.950;2023-08-17T03:53:04;17.60;;;11.55;;
55031;SDS011;40928;51.076;7.950;2023-08-17T03:55:30;18.52;;;10.82;;
55031;SDS011;40928;51.076;7.950;2023-08-17T03:57:56;18.13;;;11.63;;
55031;SDS011;40928;51.076;7.950;2023-08-17T04:00:22;16.80;;;8.40;;
55031;SDS011;40928;51.076;7.950;2023-08-17T04:02:53;11.20;;;8.30;;
55031;SDS011;40928;51.076;7.950;2023-08-17T04:05:20;15.88;;;11.55;;
55031;SDS011;40928;51.076;7.950;2023-08-17T04:07:46;16.15;;;9.95;;
55031;SDS011;40928;51.076;7.950;2023-08-17T04:10:12;11.15;;;9.18;;
55031;SDS011;40928;51.076;7.950;2023-08-17T04:12:38;17.92;;;11.98;;
55031;SDS011;40928;51.076;7.950;2023-08-17T04:15:04;12.15;;;7.80;;
55031;SDS011;40928;51.076;7.950;2023-08-17T04:17:30;15.18;;;9.98;;
55031;SDS011;40928;51.076;7.950;2023-08-17T04:19:56;19.27;;;12.07;;
55031;SDS011;40928;51.076;7.950;2023-08-17T04:22:23;16.27;;;10.63;;
55031;SDS011;40928;51.076;7.950;2023-08-17T04:24:49;13.77;;;8.32;;
55031;SDS011;40928;51.076;7.950;2023-08-17T04:27:16;15.38;;;10.25;;
55031;SDS011;40928;51.076;7.950;2023-08-17T04:29:43;18.08;;;10.23;;
55031;SDS011;40928;51.076;7.950;2023-08-17T04:32:13;11.55;;;8.63;;
55031;SDS011;40928;51.076;7.950;2023-08-17T04:34:45;12.35;;;8.93;;
55031;SDS011;40928;51.076;7.950;2023-08-17T04:37:14;11.13;;;8.07;;
55031;SDS011;40928;51.076;7.950;2023-08-17T04:39:41;12.30;;;9.05;;
55031;SDS011;40928;51.076;7.950;2023-08-17T04:42:10;12.82;;;9.18;;
55031;SDS011;40928;51.076;7.950;2023-08-17T04:44:36;16.02;;;8.50;;
55031;SDS011;40928;51.076;7.950;2023-08-17T04:47:02;12.30;;;8.43;;
55031;SDS011;40928;51.076;7.950;2023-08-17T04:49:29;10.70;;;7.05;;
55031;SDS011;40928;51.076;7.950;2023-08-17T04:51:55;11.40;;;8.20;;
55031;SDS011;40928;51.076;7.950;2023-08-17T04:54:21;14.07;;;10.25;;
55031;SDS011;40928;51.076;7.950;2023-08-17T04:56:48;17.15;;;10.23;;
55031;SDS011;40928;51.076;7.950;2023-08-17T04:59:15;19.70;;;10.85;;
55031;SDS011;40928;51.076;7.950;2023-08-17T05:01:41;16.45;;;10.80;;
55031;SDS011;40928;51.076;7.950;2023-08-17T05:04:07;11.63;;;8.68;;
55031;SDS011;40928;51.076;7.950;2023-08-17T05:06:32;14.27;;;9.57;;
55031;SDS011;40928;51.076;7.950;2023-08-17T05:08:59;13.55;;;9.73;;
55031;SDS011;40928;51.076;7.950;2023-08-17T05:14:06;15.88;;;10.73;;
55031;SDS011;40928;51.076;7.950;2023-08-17T05:16:32;21.92;;;15.18;;
55031;SDS011;40928;51.076;7.950;2023-08-17T05:18:58;17.08;;;12.10;;
55031;SDS011;40928;51.076;7.950;2023-08-17T05:21:26;13.43;;;8.70;;
55031;SDS011;40928;51.076;7.950;2023-08-17T05:23:52;20.55;;;12.20;;
55031;SDS011;40928;51.076;7.950;2023-08-17T05:26:17;16.13;;;9.98;;
55031;SDS011;40928;51.076;7.950;2023-08-17T05:28:43;9.93;;;7.03;;
55031;SDS011;40928;51.076;7.950;2023-08-17T05:31:10;14.73;;;9.93;;
55031;SDS011;40928;51.076;7.950;2023-08-17T05:33:39;12.30;;;8.70;;
55031;SDS011;40928;51.076;7.950;2023-08-17T05:36:08;12.38;;;8.25;;
55031;SDS011;40928;51.076;7.950;2023-08-17T05:38:33;10.10;;;6.93;;
55031;SDS011;40928;51.076;7.950;2023-08-17T05:40:59;12.45;;;8.75;;
55031;SDS011;40928;51.076;7.950;2023-08-17T05:43:27;16.17;;;10.27;;
55031;SDS011;40928;51.076;7.950;2023-08-17T05:45:52;14.98;;;10.05;;
55031;SDS011;40928;51.076;7.950;2023-08-17T05:48:18;13.88;;;8.88;;
55031;SDS011;40928;51.076;7.950;2023-08-17T05:50:46;11.52;;;6.88;;
55031;SDS011;40928;51.076;7.950;2023-08-17T05:53:11;9.98;;;7.00;;
55031;SDS011;40928;51.076;7.950;2023-08-17T05:55:37;10.95;;;7.43;;
55031;SDS011;40928;51.076;7.950;2023-08-17T05:58:02;9.48;;;6.03;;
55031;SDS011;40928;51.076;7.950;2023-08-17T06:00:29;9.05;;;6.40;;
55031;SDS011;40928;51.076;7.950;2023-08-17T06:02:54;10.27;;;6.28;;
55031;SDS011;40928;51.076;7.950;2023-08-17T06:05:26;7.85;;;5.13;;
55031;SDS011;40928;51.076;7.950;2023-08-17T06:07:52;8.43;;;6.40;;
55031;SDS011;40928;51.076;7.950;2023-08-17T06:10:18;7.70;;;5.07;;
55031;SDS011;40928;51.076;7.950;2023-08-17T06:12:44;9.52;;;5.85;;
55031;SDS011;40928;51.076;7.950;2023-08-17T06:15:09;11.93;;;7.18;;
55031;SDS011;40928;51.076;7.950;2023-08-17T06:17:35;10.23;;;6.72;;
55031;SDS011;40928;51.076;7.950;2023-08-17T06:20:01;9.80;;;6.82;;
55031;SDS011;40928;51.076;7.950;2023-08-17T06:22:28;12.77;;;7.95;;
55031;SDS011;40928;51.076;7.950;2023-08-17T06:24:53;12.48;;;7.82;;
55031;SDS011;40928;51.076;7.950;2023-08-17T06:27:19;11.68;;;7.65;;
55031;SDS011;40928;51.076;7.950;2023-08-17T06:29:44;17.88;;;10.48;;
55031;SDS011;40928;51.076;7.950;2023-08-17T06:32:10;17.15;;;12.40;;
55031;SDS011;40928;51.076;7.950;2023-08-17T06:34:36;11.23;;;7.70;;
55031;SDS011;40928;51.076;7.950;2023-08-17T06:37:02;9.88;;;6.97;;
55031;SDS011;40928;51.076;7.950;2023-08-17T06:39:29;8.43;;;5.85;;
55031;SDS011;40928;51.076;7.950;2023-08-17T06:41:54;8.63;;;5.70;;
55031;SDS011;40928;51.076;7.950;2023-08-17T06:44:20;9.13;;;6.22;;
55031;SDS011;40928;51.076;7.950;2023-08-17T06:46:46;8.95;;;5.38;;
55031;SDS011;40928;51.076;7.950;2023-08-17T06:49:12;10.38;;;7.15;;
55031;SDS011;40928;51.076;7.950;2023-08-17T06:51:37;13.15;;;8.48;;
55031;SDS011;40928;51.076;7.950;2023-08-17T06:54:04;13.27;;;7.85;;
55031;SDS011;40928;51.076;7.950;2023-08-17T06:56:30;8.63;;;6.75;;
55031;SDS011;40928;51.076;7.950;2023-08-17T06:58:56;10.07;;;6.57;;
55031;SDS011;40928;51.076;7.950;2023-08-17T07:01:21;12.30;;;7.63;;
55031;SDS011;40928;51.076;7.950;2023-08-17T07:03:47;15.20;;;7.90;;
55031;SDS011;40928;51.076;7.950;2023-08-17T07:06:12;10.45;;;6.40;;
55031;SDS011;40928;51.076;7.950;2023-08-17T07:08:38;12.30;;;7.28;;
55031;SDS011;40928;51.076;7.950;2023-08-17T07:11:04;11.18;;;7.50;;
55031;SDS011;40928;51.076;7.950;2023-08-17T07:13:31;12.93;;;6.90;;
55031;SDS011;40928;51.076;7.950;2023-08-17T07:15:57;12.30;;;7.88;;
55031;SDS011;40928;51.076;7.950;2023-08-17T07:18:22;11.13;;;7.10;;
55031;SDS011;40928;51.076;7.950;2023-08-17T07:20:48;12.40;;;7.72;;
55031;SDS011;40928;51.076;7.950;2023-08-17T07:23:14;10.75;;;6.97;;
55031;SDS011;40928;51.076;7.950;2023-08-17T07:25:40;10.05;;;6.43;;
55031;SDS011;40928;51.076;7.950;2023-08-17T07:28:06;8.60;;;5.43;;
55031;SDS011;40928;51.076;7.950;2023-08-17T07:30:31;7.88;;;5.22;;
55031;SDS011;40928;51.076;7.950;2023-08-17T07:32:57;11.32;;;7.50;;
55031;SDS011;40928;51.076;7.950;2023-08-17T07:35:22;12.35;;;6.55;;
55031;SDS011;40928;51.076;7.950;2023-08-17T07:37:48;10.10;;;7.80;;
55031;SDS011;40928;51.076;7.950;2023-08-17T07:40:14;8.35;;;6.03;;
55031;SDS011;40928;51.076;7.950;2023-08-17T07:42:39;8.68;;;6.88;;
55031;SDS011;40928;51.076;7.950;2023-08-17T07:45:05;10.05;;;6.78;;
55031;SDS011;40928;51.076;7.950;2023-08-17T07:47:33;9.98;;;6.07;;
55031;SDS011;40928;51.076;7.950;2023-08-17T07:50:01;10.52;;;6.00;;
55031;SDS011;40928;51.076;7.950;2023-08-17T07:52:27;8.90;;;6.22;;
55031;SDS011;40928;51.076;7.950;2023-08-17T07:54:53;9.38;;;6.55;;
55031;SDS011;40928;51.076;7.950;2023-08-17T07:57:24;11.15;;;6.03;;
55031;SDS011;40928;51.076;7.950;2023-08-17T07:59:49;9.80;;;6.78;;
55031;SDS011;40928;51.076;7.950;2023-08-17T08:02:16;6.78;;;5.20;;
55031;SDS011;40928;51.076;7.950;2023-08-17T08:04:42;8.98;;;6.30;;
55031;SDS011;40928;51.076;7.950;2023-08-17T08:07:08;9.18;;;7.20;;
55031;SDS011;40928;51.076;7.950;2023-08-17T08:09:35;11.18;;;6.57;;
55031;SDS011;40928;51.076;7.950;2023-08-17T08:12:00;11.73;;;8.40;;
55031;SDS011;40928;51.076;7.950;2023-08-17T08:14:26;12.88;;;9.15;;
55031;SDS011;40928;51.076;7.950;2023-08-17T08:16:52;10.95;;;8.90;;
55031;SDS011;40928;51.076;7.950;2023-08-17T08:19:17;10.32;;;6.13;;
55031;SDS011;40928;51.076;7.950;2023-08-17T08:21:43;17.75;;;10.32;;
55031;SDS011;40928;51.076;7.950;2023-08-17T08:24:08;16.60;;;9.90;;
55031;SDS011;40928;51.076;7.950;2023-08-17T08:26:34;14.68;;;10.25;;
55031;SDS011;40928;51.076;7.950;2023-08-17T08:29:00;17.80;;;11.02;;
55031;SDS011;40928;51.076;7.950;2023-08-17T08:31:25;13.35;;;9.05;;
55031;SDS011;40928;51.076;7.950;2023-08-17T08:33:51;15.55;;;9.75;;
55031;SDS011;40928;51.076;7.950;2023-08-17T08:36:18;12.43;;;8.63;;
55031;SDS011;40928;51.076;7.950;2023-08-17T08:38:43;12.35;;;9.40;;
55031;SDS011;40928;51.076;7.950;2023-08-17T08:41:09;15.15;;;9.88;;
55031;SDS011;40928;51.076;7.950;2023-08-17T08:43:36;12.95;;;9.60;;
55031;SDS011;40928;51.076;7.950;2023-08-17T08:46:04;18.50;;;9.65;;
55031;SDS011;40928;51.076;7.950;2023-08-17T08:48:29;14.85;;;9.55;;
55031;SDS011;40928;51.076;7.950;2023-08-17T08:50:57;16.05;;;10.00;;
55031;SDS011;40928;51.076;7.950;2023-08-17T08:53:32;12.13;;;8.30;;
55031;SDS011;40928;51.076;7.950;2023-08-17T08:56:03;12.90;;;9.40;;
55031;SDS011;40928;51.076;7.950;2023-08-17T08:58:29;14.48;;;10.23;;
55031;SDS011;40928;51.076;7.950;2023-08-17T09:00:57;18.65;;;11.23;;
55031;SDS011;40928;51.076;7.950;2023-08-17T09:03:23;15.05;;;10.30;;
55031;SDS011;40928;51.076;7.950;2023-08-17T09:05:50;14.23;;;8.63;;
55031;SDS011;40928;51.076;7.950;2023-08-17T09:08:24;19.35;;;11.48;;
55031;SDS011;40928;51.076;7.950;2023-08-17T09:10:52;15.18;;;10.30;;
55031;SDS011;40928;51.076;7.950;2023-08-17T09:13:18;14.68;;;9.68;;
55031;SDS011;40928;51.076;7.950;2023-08-17T09:15:43;11.98;;;8.27;;
55031;SDS011;40928;51.076;7.950;2023-08-17T09:18:09;16.23;;;10.82;;
55031;SDS011;40928;51.076;7.950;2023-08-17T09:20:35;16.17;;;10.18;;
55031;SDS011;40928;51.076;7.950;2023-08-17T09:23:09;15.75;;;10.32;;
55031;SDS011;40928;51.076;7.950;2023-08-17T09:25:41;24.02;;;12.65;;
55031;SDS011;40928;51.076;7.950;2023-08-17T09:28:12;14.25;;;9.57;;
55031;SDS011;40928;51.076;7.950;2023-08-17T09:33:29;17.55;;;11.73;;
55031;SDS011;40928;51.076;7.950;2023-08-17T09:35:56;17.33;;;11.35;;
55031;SDS011;40928;51.076;7.950;2023-08-17T09:38:23;21.30;;;11.73;;
55031;SDS011;40928;51.076;7.950;2023-08-17T09:40:49;17.10;;;11.20;;
55031;SDS011;40928;51.076;7.950;2023-08-17T09:43:15;16.35;;;10.00;;
55031;SDS011;40928;51.076;7.950;2023-08-17T09:45:42;13.50;;;9.23;;
55031;SDS011;40928;51.076;7.950;2023-08-17T09:48:14;14.13;;;9.90;;
55031;SDS011;40928;51.076;7.950;2023-08-17T09:50:41;12.98;;;8.68;;
55031;SDS011;40928;51.076;7.950;2023-08-17T09:53:07;15.32;;;10.18;;
55031;SDS011;40928;51.076;7.950;2023-08-17T09:55:37;12.13;;;8.63;;
55031;SDS011;40928;51.076;7.950;2023-08-17T09:58:06;10.80;;;7.22;;
55031;SDS011;40928;51.076;7.950;2023-08-17T10:00:33;9.38;;;7.32;;
55031;SDS011;40928;51.076;7.950;2023-08-17T10:03:00;10.30;;;7.75;;
55031;SDS011;40928;51.076;7.950;2023-08-17T10:05:28;13.65;;;8.38;;
55031;SDS011;40928;51.076;7.950;2023-08-17T10:07:57;9.48;;;6.57;;
55031;SDS011;40928;51.076;7.950;2023-08-17T10:10:25;10.05;;;6.55;;
55031;SDS011;40928;51.076;7.950;2023-08-17T10:12:59;8.18;;;6.25;;
55031;SDS011;40928;51.076;7.950;2023-08-17T10:15:50;11.77;;;6.63;;
55031;SDS011;40928;51.076;7.950;2023-08-17T10:18:45;8.75;;;5.57;;
55031;SDS011;40928;51.076;7.950;2023-08-17T10:21:42;10.02;;;6.45;;
55031;SDS011;40928;51.076;7.950;2023-08-17T10:24:08;9.25;;;6.03;;
55031;SDS011;40928;51.076;7.950;2023-08-17T10:26:35;8.07;;;6.18;;
55031;SDS011;40928;51.076;7.950;2023-08-17T10:29:01;10.13;;;7.53;;
55031;SDS011;40928;51.076;7.950;2023-08-17T10:31:28;10.45;;;6.63;;
55031;SDS011;40928;51.076;7.950;2023-08-17T10:33:56;12.15;;;7.50;;
55031;SDS011;40928;51.076;7.950;2023-08-17T10:36:23;9.00;;;7.03;;
55031;SDS011;40928;51.076;7.950;2023-08-17T10:44:14;9.75;;;6.88;;
55031;SDS011;40928;51.076;7.950;2023-08-17T10:46:40;7.95;;;6.20;;
55031;SDS011;40928;51.076;7.950;2023-08-17T10:49:06;8.93;;;6.40;;
55031;SDS011;40928;51.076;7.950;2023-08-17T10:52:07;12.80;;;7.25;;
55031;SDS011;40928;51.076;7.950;2023-08-17T10:54:36;7.05;;;5.00;;
55031;SDS011;40928;51.076;7.950;2023-08-17T11:00:06;7.75;;;5.75;;
55031;SDS011;40928;51.076;7.950;2023-08-17T11:02:58;11.13;;;6.70;;
55031;SDS011;40928;51.076;7.950;2023-08-17T11:08:29;10.23;;;5.82;;
55031;SDS011;40928;51.076;7.950;2023-08-17T11:11:04;10.80;;;4.82;;
55031;SDS011;40928;51.076;7.950;2023-08-17T11:13:30;7.60;;;5.78;;
55031;SDS011;40928;51.076;7.950;2023-08-17T11:15:57;8.75;;;5.90;;
55031;SDS011;40928;51.076;7.950;2023-08-17T11:18:24;8.90;;;6.28;;
55031;SDS011;40928;51.076;7.950;2023-08-17T11:20:50;9.77;;;6.32;;
55031;SDS011;40928;51.076;7.950;2023-08-17T11:23:16;9.30;;;6.13;;
55031;SDS011;40928;51.076;7.950;2023-08-17T11:25:42;8.65;;;6.50;;
55031;SDS011;40928;51.076;7.950;2023-08-17T11:28:08;9.18;;;6.93;;
55031;SDS011;40928;51.076;7.950;2023-08-17T11:30:34;9.25;;;6.82;;
55031;SDS011;40928;51.076;7.950;2023-08-17T11:33:03;8.68;;;6.28;;
55031;SDS011;40928;51.076;7.950;2023-08-17T11:35:30;7.13;;;5.95;;
55031;SDS011;40928;51.076;7.950;2023-08-17T11:37:56;5.75;;;5.15;;
55031;SDS011;40928;51.076;7.950;2023-08-17T11:40:21;6.13;;;5.07;;
55031;SDS011;40928;51.076;7.950;2023-08-17T11:42:47;7.75;;;5.50;;
55031;SDS011;40928;51.076;7.950;2023-08-17T11:45:13;6.78;;;5.20;;
55031;SDS011;40928;51.076;7.950;2023-08-17T11:47:40;6.50;;;5.15;;
55031;SDS011;40928;51.076;7.950;2023-08-17T11:50:08;7.82;;;5.50;;
55031;SDS011;40928;51.076;7.950;2023-08-17T11:52:37;7.75;;;5.70;;
55031;SDS011;40928;51.076;7.950;2023-08-17T11:55:03;7.22;;;5.65;;
55031;SDS011;40928;51.076;7.950;2023-08-17T11:57:31;7.45;;;5.55;;
55031;SDS011;40928;51.076;7.950;2023-08-17T12:00:00;11.65;;;6.13;;
55031;SDS011;40928;51.076;7.950;2023-08-17T12:02:26;7.32;;;5.43;;
55031;SDS011;40928;51.076;7.950;2023-08-17T12:04:53;9.02;;;6.60;;
55031;SDS011;40928;51.076;7.950;2023-08-17T12:07:21;7.25;;;6.10;;
55031;SDS011;40928;51.076;7.950;2023-08-17T12:09:49;7.88;;;5.75;;
55031;SDS011;40928;51.076;7.950;2023-08-17T12:12:18;6.72;;;5.70;;
55031;SDS011;40928;51.076;7.950;2023-08-17T12:14:44;6.88;;;5.47;;
55031;SDS011;40928;51.076;7.950;2023-08-17T12:17:16;6.88;;;5.30;;
55031;SDS011;40928;51.076;7.950;2023-08-17T12:19:43;7.53;;;5.18;;
55031;SDS011;40928;51.076;7.950;2023-08-17T12:22:09;9.07;;;4.85;;
55031;SDS011;40928;51.076;7.950;2023-08-17T12:24:35;7.60;;;4.85;;
55031;SDS011;40928;51.076;7.950;2023-08-17T12:27:02;5.07;;;3.90;;
55031;SDS011;40928;51.076;7.950;2023-08-17T12:29:28;7.15;;;4.80;;
55031;SDS011;40928;51.076;7.950;2023-08-17T12:31:56;6.95;;;4.63;;
55031;SDS011;40928;51.076;7.950;2023-08-17T12:34:22;4.78;;;4.28;;
55031;SDS011;40928;51.076;7.950;2023-08-17T12:36:48;6.68;;;4.43;;
55031;SDS011;40928;51.076;7.950;2023-08-17T12:39:15;7.20;;;4.35;;
55031;SDS011;40928;51.076;7.950;2023-08-17T12:41:40;5.30;;;4.07;;
55031;SDS011;40928;51.076;7.950;2023-08-17T12:44:06;4.55;;;3.60;;
55031;SDS011;40928;51.076;7.950;2023-08-17T12:46:32;4.78;;;3.80;;
55031;SDS011;40928;51.076;7.950;2023-08-17T12:48:59;7.07;;;3.55;;
55031;SDS011;40928;51.076;7.950;2023-08-17T12:51:25;5.28;;;3.95;;
55031;SDS011;40928;51.076;7.950;2023-08-17T12:53:50;6.80;;;3.60;;
55031;SDS011;40928;51.076;7.950;2023-08-17T12:56:16;5.53;;;3.80;;
55031;SDS011;40928;51.076;7.950;2023-08-17T12:58:41;5.43;;;4.00;;
55031;SDS011;40928;51.076;7.950;2023-08-17T13:01:07;3.75;;;3.35;;
55031;SDS011;40928;51.076;7.950;2023-08-17T13:03:32;9.50;;;3.67;;
55031;SDS011;40928;51.076;7.950;2023-08-17T13:05:58;4.25;;;3.50;;
55031;SDS011;40928;51.076;7.950;2023-08-17T13:08:24;4.68;;;3.20;;
55031;SDS011;40928;51.076;7.950;2023-08-17T13:10:49;4.22;;;3.60;;
55031;SDS011;40928;51.076;7.950;2023-08-17T13:13:15;4.78;;;3.40;;
55031;SDS011;40928;51.076;7.950;2023-08-17T13:15:40;4.85;;;3.40;;
55031;SDS011;40928;51.076;7.950;2023-08-17T13:18:07;3.80;;;3.38;;
55031;SDS011;40928;51.076;7.950;2023-08-17T13:20:33;3.30;;;3.00;;
55031;SDS011;40928;51.076;7.950;2023-08-17T13:22:58;3.67;;;3.00;;
55031;SDS011;40928;51.076;7.950;2023-08-17T13:25:24;3.53;;;2.97;;
55031;SDS011;40928;51.076;7.950;2023-08-17T13:27:49;4.28;;;3.20;;
55031;SDS011;40928;51.076;7.950;2023-08-17T13:30:15;3.53;;;3.22;;
55031;SDS011;40928;51.076;7.950;2023-08-17T13:32:41;3.53;;;3.13;;
55031;SDS011;40928;51.076;7.950;2023-08-17T13:35:06;4.05;;;3.42;;
55031;SDS011;40928;51.076;7.950;2023-08-17T13:37:32;5.00;;;3.03;;
55031;SDS011;40928;51.076;7.950;2023-08-17T13:39:57;4.53;;;3.30;;
55031;SDS011;40928;51.076;7.950;2023-08-17T13:42:23;3.80;;;3.42;;
55031;SDS011;40928;51.076;7.950;2023-08-17T13:44:49;3.50;;;3.10;;
55031;SDS011;40928;51.076;7.950;2023-08-17T13:47:14;4.00;;;3.42;;
55031;SDS011;40928;51.076;7.950;2023-08-17T13:49:40;5.63;;;3.40;;
55031;SDS011;40928;51.076;7.950;2023-08-17T13:52:06;4.13;;;3.33;;
55031;SDS011;40928;51.076;7.950;2023-08-17T13:54:31;5.05;;;2.97;;
55031;SDS011;40928;51.076;7.950;2023-08-17T13:56:57;5.07;;;3.10;;
55031;SDS011;40928;51.076;7.950;2023-08-17T13:59:22;4.25;;;3.58;;
55031;SDS011;40928;51.076;7.950;2023-08-17T14:01:47;4.35;;;3.10;;
55031;SDS011;40928;51.076;7.950;2023-08-17T14:04:13;5.47;;;3.00;;
55031;SDS011;40928;51.076;7.950;2023-08-17T14:06:39;4.00;;;3.03;;
55031;SDS011;40928;51.076;7.950;2023-08-17T14:09:06;3.50;;;3.20;;
55031;SDS011;40928;51.076;7.950;2023-08-17T14:11:32;3.47;;;3.00;;
55031;SDS011;40928;51.076;7.950;2023-08-17T14:13:57;5.40;;;3.30;;
55031;SDS011;40928;51.076;7.950;2023-08-17T14:16:23;3.20;;;2.70;;
55031;SDS011;40928;51.076;7.950;2023-08-17T14:18:49;3.28;;;2.75;;
55031;SDS011;40928;51.076;7.950;2023-08-17T14:21:14;3.75;;;2.78;;
55031;SDS011;40928;51.076;7.950;2023-08-17T14:23:40;3.30;;;2.97;;
55031;SDS011;40928;51.076;7.950;2023-08-17T14:26:05;3.35;;;2.50;;
55031;SDS011;40928;51.076;7.950;2023-08-17T14:28:31;3.17;;;2.70;;
55031;SDS011;40928;51.076;7.950;2023-08-17T14:30:57;4.03;;;2.83;;
55031;SDS011;40928;51.076;7.950;2023-08-17T14:33:22;7.00;;;2.55;;
55031;SDS011;40928;51.076;7.950;2023-08-17T14:35:48;4.28;;;2.92;;
55031;SDS011;40928;51.076;7.950;2023-08-17T14:38:14;3.15;;;2.72;;
55031;SDS011;40928;51.076;7.950;2023-08-17T14:40:43;4.57;;;3.10;;
55031;SDS011;40928;51.076;7.950;2023-08-17T14:43:13;4.43;;;2.80;;
55031;SDS011;40928;51.076;7.950;2023-08-17T14:45:42;3.83;;;2.85;;
55031;SDS011;40928;51.076;7.950;2023-08-17T14:48:08;2.85;;;2.65;;
55031;SDS011;40928;51.076;7.950;2023-08-17T14:50:34;3.92;;;2.70;;
55031;SDS011;40928;51.076;7.950;2023-08-17T14:53:01;3.65;;;3.30;;
55031;SDS011;40928;51.076;7.950;2023-08-17T14:55:31;3.22;;;2.80;;
55031;SDS011;40928;51.076;7.950;2023-08-17T14:57:56;4.65;;;3.15;;
55031;SDS011;40928;51.076;7.950;2023-08-17T15:00:23;3.70;;;2.60;;